Aviation Digital Data Service (ADDS)

Output produced by METARs form (0052 UTC 30 March 2017)
found at http://www.aviationweather.gov/adds/metars/
 
KFIG 292354Z AUTO 03005KT 10SM CLR 10/M02 A3017 RMK AO2 SLPNO T01001017 10144 20100 53008
KFIG 292254Z AUTO 02007KT 10SM CLR 12/M02 A3016 RMK AO2 SLPNO T01171022
KFIG 292154Z AUTO 03007KT 10SM CLR 14/M03 A3014 RMK AO2 SLPNO T01391028
KFIG 292054Z AUTO 35010KT 10SM CLR 14/M02 A3014 RMK AO2 SLPNO T01441022 55004
KFIG 291954Z AUTO 04007KT 10SM CLR 14/M02 A3014 RMK AO2 SLPNO T01391017
KFIG 291854Z AUTO 03010KT 10SM CLR 14/M01 A3013 RMK AO2 SLPNO T01391011
KFIG 291754Z AUTO VRB05KT 10SM FEW055 13/00 A3016 RMK AO2 SLPNO 6//// T01280000 58012
KFIG 291654Z AUTO 10SM CLR 12/00 A3018 RMK AO2 SLPNO T01170000 $
KFIG 291554Z AUTO A3019 RMK AO2 SLPNO PWINO FZRANO PNO $
KFIG 291454Z AUTO A3019 RMK AO2 SLPNO 6//// PWINO FZRANO PNO $
KFIG 291254Z AUTO A3016 RMK AO2 SLPNO PWINO FZRANO PNO $
KFIG 291154Z AUTO A3015 RMK AO2 SLPNO 6//// 7//// 51016 PWINO FZRANO PNO $
KFIG 291054Z AUTO A3014 RMK AO2 SLPNO PWINO FZRANO PNO $
KFIG 290954Z AUTO A3012 RMK AO2 SLPNO PWINO FZRANO PNO $
KFIG 290854Z AUTO A3010 RMK AO2 SLPNO 6//// 50010 PWINO FZRANO PNO $
KFIG 290754Z AUTO A3011 RMK AO2 SLPNO PWINO FZRANO PNO $
KFIG 290654Z AUTO A3009 RMK AO2 SLPNO PWINO FZRANO PNO $
KFIG 290554Z AUTO A3007 RMK AO2 SLPNO 6//// 53010 PWINO FZRANO TSNO PNO $
KFIG 290454Z AUTO A3005 RMK AO2 SLPNO PWINO FZRANO TSNO PNO $
KFIG 290354Z AUTO A3005 RMK AO2 SLPNO PWINO FZRANO TSNO PNO $
KFIG 290254Z AUTO A3004 RMK AO2 SLPNO 6//// 51026 PWINO FZRANO PNO $
KFIG 290154Z AUTO A3002 RMK AO2 SLPNO PWINO FZRANO PNO $
KFIG 290054Z AUTO A2999 RMK AO2 SLPNO PWINO FZRANO PNO $
KFIG 282354Z AUTO A2996 RMK AO2 SLPNO 6//// 52023 PWINO FZRANO PNO $
KFIG 282254Z AUTO A2994 RMK AO2 SLPNO PWINO FZRANO PNO $
KFIG 282154Z AUTO A2991 RMK AO2 SLPNO PWINO FZRANO PNO $
KFIG 282054Z AUTO A2989 RMK AO2 SLPNO 6//// 53006 PWINO FZRANO PNO $
KFIG 281954Z AUTO A2988 RMK AO2 SLPNO PWINO FZRANO PNO $
KFIG 281854Z AUTO A2987 RMK AO2 SLPNO PWINO FZRANO PNO $
KFIG 281754Z AUTO A2987 RMK AO2 SLPNO 6//// PWINO FZRANO PNO $
KFIG 281654Z AUTO A2988 RMK AO2 SLPNO PWINO FZRANO $
KFIG 281554Z AUTO A2989 RMK AO2 SLPNO PWINO FZRANO $
KFIG 281454Z AUTO A2989 RMK AO2 SLPNO 52003 PWINO FZRANO $
KFIG 281354Z AUTO A2989 RMK AO2 SLPNO PWINO FZRANO $
KFIG 281254Z AUTO A2988 RMK AO2 SLPNO PWINO FZRANO $